Hlavní strana
METAR-TAF:

METAR-TAF

Letiště :

New Orleans, Louisiana, Spojené státy americké

zeměpisná šířka: 29-59-34N, zeměpisná délka: 090-15-03W, výška: 1 m

Aktuální stav počasí

Zpráva byla vytvořena před 1 hodinou a 1 minutami, v 21:53 UTC
Severovýchodní vítr 4 kt
Teplota 17°C
Vlhkost vzduchu 36%
Tlak 1022 hPa
Viditelnost: 16.1 km
Skoro jasno ve výšce 25000 ft

METAR: KMSY 162153Z 05004KT 10SM FEW250 17/02 A3019 RMK AO2 SLP224 T01670017

Čas: 16:54 (22:54 UTC)

Předpověď počasí

Zpráva byla vytvořena před 5 hodinami a 34 minutami, v 17:20 UTC
Předpověď platná od 16 v 18 UTC do 17 v 24 UTC
Severní vítr kt
Viditelnost: 10 km
Jasno

TAF: KMSY 161720Z 1618/1724 00000KT P6SM SKC

Stav a předpovědi počasí z více než 4 000 letišť (zprávy METAR a TAF).

Červené a žluté tečky na mapě představují dostupné meteorologické stanice.

Když kurzor umístíte na tečku, zobrazí se název stanice.

Pak kliknutím zobrazíte stav a předpověď počasí.

Chcete-li změnit mapu, kliknutím na zelené tlačítko se znaménkem +mapu přiblížíte, kliknutím na zelené tlačítko se znaménkem – mapu oddálíte a kliknutím na zelené šipky přejdete na sousední mapy.


METAR-TAF: